Time;durP1;ratioP1;P1;durP2;ratioP2;P2;SDS_P1;SDS_P2;PMS_P1;PMS_P2;Temp;Humidity;BMP_temperature;BMP_pressure;BME280_temperature;BME280_humidity;BME280_pressure;Samples;Min_cycle;Max_cycle;Signal;HPM_P1;HPM_P2
2020/12/10 00:01:58;;;;;;;23.67;11.40;;;;;;;-1.31;81.44;98187.70;3720191;79;21019;-79
2020/12/10 00:07:00;;;;;;;28.10;14.50;;;;;;;-1.32;81.34;98176.89;3686727;80;21413;-79
2020/12/10 00:12:03;;;;;;;26.07;12.37;;;;;;;-1.40;81.05;98185.09;3640052;81;21063;-78
2020/12/10 00:17:05;;;;;;;26.00;11.90;;;;;;;-1.45;81.25;98188.92;3632079;81;20925;-78
2020/12/10 00:22:09;;;;;;;28.97;13.60;;;;;;;-1.47;81.37;98187.84;3693394;80;21020;-79
2020/12/10 00:27:10;;;;;;;29.30;13.40;;;;;;;-1.50;81.39;98172.50;3627491;81;21048;-78
2020/12/10 00:32:17;;;;;;;28.47;13.80;;;;;;;-1.51;81.43;98176.17;3696030;80;21011;-79
2020/12/10 00:37:20;;;;;;;30.60;14.30;;;;;;;-1.48;81.62;98179.66;3665511;79;21000;-80
2020/12/10 00:42:23;;;;;;;28.07;13.03;;;;;;;-1.41;81.73;98182.20;3631177;81;21024;-78
2020/12/10 00:47:25;;;;;;;32.70;15.10;;;;;;;-1.35;81.64;98173.92;3693390;80;20972;-79
2020/12/10 00:52:29;;;;;;;25.10;11.10;;;;;;;-1.33;81.51;98171.37;3644231;80;20996;-79
2020/12/10 00:57:33;;;;;;;31.10;14.43;;;;;;;-1.30;81.52;98174.03;3668563;80;21079;-79
2020/12/10 01:02:35;;;;;;;22.93;10.87;;;;;;;-1.28;81.53;98179.87;3643960;81;20973;-79
2020/12/10 01:07:38;;;;;;;28.97;11.60;;;;;;;-1.33;81.24;98175.30;3667526;80;20961;-79
2020/12/10 01:12:41;;;;;;;28.20;13.40;;;;;;;-1.42;81.23;98164.83;3645748;80;21481;-79
2020/12/10 01:17:43;;;;;;;26.40;11.13;;;;;;;-1.44;81.34;98161.60;3661095;80;21012;-79
2020/12/10 01:22:45;;;;;;;23.13;10.67;;;;;;;-1.43;81.50;98151.39;3699378;80;20992;-79
2020/12/10 01:27:47;;;;;;;19.87;10.03;;;;;;;-1.44;81.39;98143.21;3602344;80;21012;-79
2020/12/10 01:32:49;;;;;;;22.63;11.83;;;;;;;-1.44;81.43;98127.45;3592498;81;21004;-78
2020/12/10 01:37:51;;;;;;;21.57;11.07;;;;;;;-1.46;81.30;98130.83;3693337;79;21000;-78
2020/12/10 01:42:53;;;;;;;27.30;12.27;;;;;;;-1.50;81.47;98121.27;3656899;80;21083;-79
2020/12/10 01:47:55;;;;;;;22.30;10.40;;;;;;;-1.49;81.49;98112.89;3671326;81;21204;-78
2020/12/10 01:52:59;;;;;;;24.67;11.43;;;;;;;-1.56;81.25;98113.78;3666830;79;21330;-78
2020/12/10 01:58:01;;;;;;;24.40;11.97;;;;;;;-1.52;81.82;98107.58;3657516;80;21023;-78
2020/12/10 02:03:03;;;;;;;22.83;10.03;;;;;;;-1.50;81.64;98104.20;3629463;81;21611;-78
2020/12/10 02:08:05;;;;;;;31.43;14.77;;;;;;;-1.45;81.57;98106.95;3704133;80;21024;-79
2020/12/10 02:13:07;;;;;;;31.03;13.00;;;;;;;-1.46;81.54;98118.48;3680734;79;21450;-79
2020/12/10 02:18:12;;;;;;;28.90;14.27;;;;;;;-1.46;81.47;98110.59;3638459;81;20936;-78
2020/12/10 02:23:14;;;;;;;30.53;12.80;;;;;;;-1.48;81.60;98102.66;3696962;80;21036;-79
2020/12/10 02:28:17;;;;;;;29.20;13.30;;;;;;;-1.48;81.65;98094.77;3667334;80;21016;-79
2020/12/10 02:33:19;;;;;;;22.87;11.60;;;;;;;-1.50;81.55;98088.95;3639405;80;21036;-78
2020/12/10 02:38:21;;;;;;;24.93;12.90;;;;;;;-1.47;81.68;98089.31;3638030;81;21024;-79
2020/12/10 02:43:23;;;;;;;31.90;14.43;;;;;;;-1.51;81.43;98088.17;3652851;80;21040;-79
2020/12/10 02:48:25;;;;;;;24.53;12.10;;;;;;;-1.50;81.62;98077.92;3636526;79;21016;-79
2020/12/10 02:53:28;;;;;;;29.83;13.43;;;;;;;-1.51;81.58;98074.21;3650872;80;21028;-79
2020/12/10 02:58:30;;;;;;;24.27;10.57;;;;;;;-1.53;81.75;98078.38;3655231;80;21044;-79
2020/12/10 03:03:33;;;;;;;23.43;10.47;;;;;;;-1.52;81.66;98071.32;3622387;81;21570;-79
2020/12/10 03:08:36;;;;;;;23.33;11.57;;;;;;;-1.51;81.76;98066.33;3636613;81;21048;-79
2020/12/10 03:13:38;;;;;;;33.43;14.23;;;;;;;-1.52;81.42;98070.01;3630075;81;21032;-79
2020/12/10 03:18:40;;;;;;;28.97;12.77;;;;;;;-1.50;81.61;98071.88;3644383;81;20944;-79
2020/12/10 03:23:42;;;;;;;20.67;10.87;;;;;;;-1.49;81.64;98069.55;3654860;81;21000;-79
2020/12/10 03:28:44;;;;;;;22.57;10.13;;;;;;;-1.52;81.56;98063.44;3613280;81;21048;-78
2020/12/10 03:33:46;;;;;;;23.73;10.43;;;;;;;-1.51;81.74;98068.96;3645168;80;21033;-79
2020/12/10 03:38:48;;;;;;;26.77;12.13;;;;;;;-1.48;81.58;98057.98;3653686;81;21436;-78
2020/12/10 03:43:50;;;;;;;25.53;11.23;;;;;;;-1.44;81.60;98052.57;3649734;81;21035;-79
2020/12/10 03:48:52;;;;;;;24.50;10.77;;;;;;;-1.42;81.91;98042.65;3659418;80;21031;-78
2020/12/10 03:53:54;;;;;;;22.77;10.63;;;;;;;-1.43;81.76;98033.98;3690807;79;20981;-79
2020/12/10 03:58:56;;;;;;;24.33;10.60;;;;;;;-1.44;81.65;98035.00;3612835;81;21041;-79
2020/12/10 04:03:58;;;;;;;20.07;9.73;;;;;;;-1.45;81.70;98035.23;3696039;80;21499;-79
2020/12/10 04:09:00;;;;;;;21.77;10.47;;;;;;;-1.48;81.60;98025.16;3634566;81;20988;-79
2020/12/10 04:14:04;;;;;;;26.83;11.43;;;;;;;-1.46;81.69;98026.53;3693279;80;21495;-79
2020/12/10 04:19:05;;;;;;;26.90;10.57;;;;;;;-1.45;81.67;98017.63;3625777;81;21010;-79
2020/12/10 04:24:09;;;;;;;18.97;8.93;;;;;;;-1.42;81.65;98012.44;3693748;80;21016;-79
2020/12/10 04:29:13;;;;;;;20.63;9.43;;;;;;;-1.42;81.53;98008.49;3617366;81;21508;-78
2020/12/10 04:34:17;;;;;;;17.30;8.50;;;;;;;-1.38;81.82;98005.70;3634773;81;21023;-79
2020/12/10 04:39:19;;;;;;;22.80;9.97;;;;;;;-1.42;81.49;98000.61;3693388;80;20984;-79
2020/12/10 04:44:21;;;;;;;21.27;8.37;;;;;;;-1.42;81.64;98000.61;3724479;79;21606;-79
2020/12/10 04:49:23;;;;;;;22.03;10.23;;;;;;;-1.43;81.58;98005.08;3696047;78;21015;-79
2020/12/10 04:54:25;;;;;;;27.57;12.50;;;;;;;-1.41;81.63;97994.34;3706044;80;20996;-79
2020/12/10 04:59:28;;;;;;;21.47;10.47;;;;;;;-1.43;81.62;97977.98;3611506;80;21012;-78
2020/12/10 05:04:30;;;;;;;29.43;13.17;;;;;;;-1.40;81.62;97981.46;3648481;81;21443;-79
2020/12/10 05:09:33;;;;;;;26.37;12.10;;;;;;;-1.44;81.54;97977.20;3626392;80;21014;-77
2020/12/10 05:14:48;;;;;;;24.27;11.50;;;;;;;-1.48;81.36;97980.49;3637164;80;20992;-79
2020/12/10 05:19:58;;;;;;;21.27;9.00;;;;;;;-1.55;81.47;97981.95;3639239;81;21016;-79
2020/12/10 05:25:04;;;;;;;24.45;10.98;;;;;;;-1.58;81.64;97980.57;3624303;81;21012;-79
2020/12/10 05:30:08;;;;;;;29.33;12.93;;;;;;;-1.59;81.71;97980.80;3636344;80;21045;-79
2020/12/10 05:35:25;;;;;;;27.63;12.10;;;;;;;-1.60;81.78;97982.61;3640984;80;20980;-79
2020/12/10 05:40:27;;;;;;;20.43;8.97;;;;;;;-1.60;81.82;97978.67;3681448;80;20948;-79
2020/12/10 05:45:29;;;;;;;22.90;10.83;;;;;;;-1.60;81.83;97972.11;3686875;80;20968;-79
2020/12/10 05:50:34;;;;;;;17.47;7.63;;;;;;;-1.58;81.77;97963.50;3723713;79;21037;-79
2020/12/10 05:55:39;;;;;;;14.77;6.10;;;;;;;-1.62;81.67;97962.36;3713103;79;21028;-80
2020/12/10 06:00:41;;;;;;;18.60;8.50;;;;;;;-1.60;81.80;97959.50;3649002;81;21091;-79
2020/12/10 06:05:44;;;;;;;16.73;7.80;;;;;;;-1.59;81.73;97955.85;3617773;79;21348;-80
2020/12/10 06:10:46;;;;;;;21.33;10.37;;;;;;;-1.55;81.77;97953.84;3637242;81;21364;-79
2020/12/10 06:15:50;;;;;;;21.17;10.00;;;;;;;-1.54;81.62;97957.25;3676166;80;21040;-79
2020/12/10 06:20:52;;;;;;;21.70;10.07;;;;;;;-1.53;81.72;97962.02;3605463;81;21413;-80
2020/12/10 06:25:56;;;;;;;23.17;11.63;;;;;;;-1.50;81.62;97960.23;3620939;79;20993;-79
2020/12/10 06:31:08;;;;;;;21.23;8.40;;;;;;;-1.47;81.81;97952.70;3622684;81;21059;-79
2020/12/10 06:36:27;;;;;;;15.97;8.20;;;;;;;-1.45;81.48;97952.47;3642638;81;20989;-79
2020/12/10 06:41:30;;;;;;;18.98;8.58;;;;;;;-1.46;81.77;97956.91;3624342;82;21028;-79
2020/12/10 06:46:50;;;;;;;17.33;8.83;;;;;;;-1.41;81.70;97953.61;3647114;80;21438;-79
2020/12/10 06:52:20;;;;;;;18.15;9.43;;;;;;;-1.41;81.39;97949.14;3642922;81;22784;-80
2020/12/10 06:57:22;;;;;;;28.10;12.27;;;;;;;-1.40;81.45;97960.45;3688767;79;21432;-79
2020/12/10 07:02:24;;;;;;;20.77;9.10;;;;;;;-1.41;81.50;97968.85;3628951;80;21044;-79
2020/12/10 07:07:26;;;;;;;21.70;10.87;;;;;;;-1.43;81.38;97960.41;3640624;80;21032;-79
2020/12/10 07:12:40;;;;;;;22.47;10.73;;;;;;;-1.41;81.32;97956.23;3638710;80;21040;-78
2020/12/10 07:17:39;;;;;;;19.48;9.58;;;;;;;-1.47;81.24;97952.70;3696106;78;21024;-78
2020/12/10 07:22:41;;;;;;;16.47;8.20;;;;;;;-1.48;81.25;97946.34;3633554;80;21080;-77
2020/12/10 07:27:44;;;;;;;20.33;9.90;;;;;;;-1.47;81.44;97944.01;3672658;80;21061;-77
2020/12/10 07:32:46;;;;;;;22.10;11.07;;;;;;;-1.43;81.42;97935.95;3627791;80;21354;-78
2020/12/10 07:37:48;;;;;;;17.07;8.33;;;;;;;-1.43;81.19;97939.89;3704021;79;21527;-77
2020/12/10 07:42:50;;;;;;;17.87;7.87;;;;;;;-1.48;81.25;97931.89;3697760;80;21028;-76
2020/12/10 07:47:57;;;;;;;19.37;9.57;;;;;;;-1.45;81.30;97940.65;3705279;79;21023;-78
2020/12/10 07:53:08;;;;;;;18.20;9.17;;;;;;;-1.48;81.20;97935.83;3691303;79;21405;-77
2020/12/10 07:58:19;;;;;;;19.47;8.80;;;;;;;-1.50;81.17;97933.44;3685891;80;21023;-77
2020/12/10 08:03:45;;;;;;;17.83;8.67;;;;;;;-1.51;81.39;97924.48;3623925;80;21087;-77
2020/12/10 08:08:58;;;;;;;23.33;10.60;;;;;;;-1.51;81.27;97911.34;3641876;81;21020;-77
2020/12/10 08:14:07;;;;;;;18.40;10.57;;;;;;;-1.41;81.43;97912.89;3620179;79;21004;-77
2020/12/10 08:19:30;;;;;;;16.37;8.70;;;;;;;-1.39;81.24;97906.88;3635137;81;21586;-77
2020/12/10 08:24:43;;;;;;;13.20;7.43;;;;;;;-1.36;81.17;97909.03;3643038;80;21076;-78
2020/12/10 08:30:00;;;;;;;21.10;11.67;;;;;;;-1.33;81.17;97911.22;3646596;79;21020;-77
2020/12/10 08:35:07;;;;;;;19.77;9.13;;;;;;;-1.39;80.95;97907.66;3645917;80;21499;-77
2020/12/10 08:40:11;;;;;;;19.57;9.17;;;;;;;-1.41;80.97;97905.80;3634740;80;21028;-78
2020/12/10 08:45:13;;;;;;;20.97;10.77;;;;;;;-1.34;81.17;97899.59;3635226;81;21468;-78
2020/12/10 08:50:23;;;;;;;24.83;12.17;;;;;;;-1.30;81.08;97892.36;3640911;80;21044;-77
2020/12/10 08:55:29;;;;;;;23.87;11.90;;;;;;;-1.17;81.19;97887.87;3641495;80;21040;-78
2020/12/10 09:00:35;;;;;;;20.60;9.03;;;;;;;-1.09;80.95;97879.59;3629931;81;21084;-78
2020/12/10 09:05:37;;;;;;;24.87;11.53;;;;;;;-1.06;81.01;97886.50;3639796;80;21004;-78
2020/12/10 09:10:40;;;;;;;23.13;10.13;;;;;;;-1.01;80.92;97879.22;3641936;80;21335;-78
2020/12/10 09:15:43;;;;;;;26.53;12.07;;;;;;;-0.93;80.88;97879.37;3640830;79;21032;-79
2020/12/10 09:20:46;;;;;;;23.90;11.10;;;;;;;-0.88;80.84;97874.21;3628598;81;21370;-78
2020/12/10 09:25:48;;;;;;;22.63;11.17;;;;;;;-0.78;80.80;97874.38;3642559;80;21032;-78
2020/12/10 09:30:51;;;;;;;18.73;10.80;;;;;;;-0.69;80.78;97865.58;3642200;80;21056;-77
2020/12/10 09:35:54;;;;;;;22.77;11.80;;;;;;;-0.59;80.73;97854.43;3644164;80;21142;-79
2020/12/10 09:40:59;;;;;;;21.87;12.33;;;;;;;-0.44;80.53;97844.68;3643786;81;21030;-78
2020/12/10 09:46:09;;;;;;;23.97;11.73;;;;;;;-0.30;80.53;97845.94;3643797;80;21053;-78
2020/12/10 09:51:08;;;;;;;33.13;15.77;;;;;;;-0.16;80.17;97838.52;3645771;79;21514;-78
2020/12/10 09:56:35;;;;;;;27.50;14.43;;;;;;;-0.01;80.11;97845.31;3643609;80;21036;-78
2020/12/10 10:01:28;;;;;;;28.57;15.53;;;;;;;0.06;79.72;97835.94;3633739;80;21053;-77
2020/12/10 10:06:30;;;;;;;28.90;14.77;;;;;;;0.19;79.83;97824.78;3642612;80;21020;-78
2020/12/10 10:11:33;;;;;;;27.03;13.50;;;;;;;0.35;79.46;97818.66;3687907;78;21023;-78
2020/12/10 10:16:36;;;;;;;26.10;13.77;;;;;;;0.46;79.07;97809.84;3680566;78;21047;-77
2020/12/10 10:21:39;;;;;;;20.93;11.57;;;;;;;0.47;79.10;97815.36;3698481;80;21063;-77
2020/12/10 10:26:43;;;;;;;23.70;13.47;;;;;;;0.48;78.81;97813.54;3663499;78;21416;-77
2020/12/10 10:31:49;;;;;;;29.20;14.97;;;;;;;0.44;78.77;97813.75;3685288;80;21562;-78
2020/12/10 10:36:51;;;;;;;20.73;13.30;;;;;;;0.39;78.57;97806.56;3623618;81;21040;-78
2020/12/10 10:41:53;;;;;;;26.97;14.43;;;;;;;0.39;78.89;97795.24;3625959;81;21048;-77
2020/12/10 10:46:55;;;;;;;27.00;16.87;;;;;;;0.42;78.82;97794.24;3698789;78;21075;-77
2020/12/10 10:51:58;;;;;;;32.47;16.07;;;;;;;0.47;78.74;97791.64;3665803;78;21039;-78
2020/12/10 10:57:00;;;;;;;38.17;19.53;;;;;;;0.50;78.55;97787.72;3695806;78;21046;-80
2020/12/10 11:02:02;;;;;;;41.87;21.03;;;;;;;0.41;77.99;97780.78;3684892;80;21032;-78
2020/12/10 11:07:05;;;;;;;29.10;15.77;;;;;;;0.35;78.27;97776.51;3635567;81;21048;-79
2020/12/10 11:12:07;;;;;;;37.90;19.00;;;;;;;0.37;78.28;97773.63;3671546;80;21512;-78
2020/12/10 11:17:09;;;;;;;39.33;19.53;;;;;;;0.39;78.24;97764.94;3688030;80;21031;-78
2020/12/10 11:22:11;;;;;;;34.63;17.70;;;;;;;0.51;78.59;97755.06;3677150;80;21016;-79
2020/12/10 11:27:13;;;;;;;32.50;17.17;;;;;;;0.50;77.84;97750.33;3661241;80;21066;-78
2020/12/10 11:32:15;;;;;;;32.17;15.23;;;;;;;0.55;78.32;97746.94;3654185;80;21082;-78
2020/12/10 11:37:17;;;;;;;36.13;19.50;;;;;;;0.63;77.92;97752.27;3625254;80;21013;-78
2020/12/10 11:42:21;;;;;;;32.90;16.87;;;;;;;0.59;77.66;97745.41;3600401;80;21011;-78
2020/12/10 11:47:23;;;;;;;36.87;18.50;;;;;;;0.65;77.89;97744.92;3641224;81;21043;-78
2020/12/10 11:52:25;;;;;;;34.90;19.23;;;;;;;0.77;78.32;97750.84;3652036;79;21080;-78
2020/12/10 11:57:27;;;;;;;44.50;23.07;;;;;;;0.81;77.81;97740.08;3628044;81;21500;-78
2020/12/10 12:02:30;;;;;;;42.57;22.47;;;;;;;0.88;77.96;97735.11;3648984;80;20992;-78
2020/12/10 12:07:32;;;;;;;34.33;19.63;;;;;;;0.97;77.82;97722.53;3613256;80;22216;-78
2020/12/10 12:12:36;;;;;;;43.30;21.60;;;;;;;1.01;77.46;97722.84;3634326;80;21350;-78
2020/12/10 12:17:44;;;;;;;43.37;21.73;;;;;;;0.96;77.79;97728.06;3641558;80;21057;-79
2020/12/10 12:22:46;;;;;;;39.47;21.70;;;;;;;1.02;77.95;97725.22;3668460;80;21055;-78
2020/12/10 12:27:48;;;;;;;33.70;18.53;;;;;;;1.07;77.90;97713.91;3627570;79;21040;-78
2020/12/10 12:32:50;;;;;;;49.23;22.97;;;;;;;0.96;77.63;97720.94;3626431;81;21071;-78
2020/12/10 12:37:52;;;;;;;46.17;22.77;;;;;;;0.86;77.67;97711.63;3599793;81;21088;-78
2020/12/10 12:42:55;;;;;;;50.07;24.73;;;;;;;0.76;77.76;97713.66;3684421;79;21056;-78
2020/12/10 12:47:57;;;;;;;38.03;20.60;;;;;;;0.65;77.81;97712.77;3692600;80;21028;-77
2020/12/10 12:53:01;;;;;;;38.20;20.47;;;;;;;0.63;78.01;97720.14;3688759;79;20964;-78
2020/12/10 12:58:04;;;;;;;34.17;17.60;;;;;;;0.56;77.89;97714.78;3691612;79;21048;-78
2020/12/10 13:03:06;;;;;;;44.37;22.33;;;;;;;0.45;77.83;97714.69;3652844;80;21048;-78
2020/12/10 13:08:08;;;;;;;31.27;16.37;;;;;;;0.43;78.23;97715.44;3610717;80;21114;-79
2020/12/10 13:13:10;;;;;;;42.70;20.83;;;;;;;0.38;78.14;97716.73;3670034;78;22140;-78
2020/12/10 13:18:12;;;;;;;37.37;18.30;;;;;;;0.31;78.10;97713.50;3589273;81;21532;-77
2020/12/10 13:23:14;;;;;;;30.93;15.20;;;;;;;0.30;78.20;97710.58;3633043;81;21000;-77
2020/12/10 13:28:17;;;;;;;25.67;13.70;;;;;;;0.33;78.62;97712.18;3701336;79;21255;-78
2020/12/10 13:33:19;;;;;;;26.10;13.80;;;;;;;0.35;78.41;97713.28;3685431;80;21015;-78
2020/12/10 13:38:21;;;;;;;21.30;10.57;;;;;;;0.36;78.54;97716.70;3690987;80;21039;-77
2020/12/10 13:43:23;;;;;;;25.23;14.30;;;;;;;0.36;78.40;97712.22;3691725;80;21035;-77
2020/12/10 13:48:25;;;;;;;32.17;15.37;;;;;;;0.34;78.30;97719.58;3686603;79;21028;-77
2020/12/10 13:53:29;;;;;;;27.80;14.80;;;;;;;0.31;78.37;97719.55;3691183;79;40849;-78
2020/12/10 13:58:32;;;;;;;22.77;12.27;;;;;;;0.31;78.46;97722.19;3618444;80;21456;-77
2020/12/10 14:03:35;;;;;;;26.73;14.80;;;;;;;0.30;78.42;97726.39;3604006;81;21045;-77
2020/12/10 14:08:40;;;;;;;30.07;16.33;;;;;;;0.35;78.59;97729.09;3607689;81;21505;-78
2020/12/10 14:13:42;;;;;;;35.97;17.73;;;;;;;0.33;78.42;97724.57;3609221;81;21069;-77
2020/12/10 14:18:46;;;;;;;37.20;18.53;;;;;;;0.32;78.50;97730.37;3616875;80;21060;-78
2020/12/10 14:23:51;;;;;;;35.43;19.23;;;;;;;0.34;78.61;97736.70;3591738;81;21055;-78
2020/12/10 14:28:53;;;;;;;50.60;24.23;;;;;;;0.39;78.76;97733.33;3594746;80;21433;-77
2020/12/10 14:33:56;;;;;;;44.70;22.93;;;;;;;0.34;78.39;97740.66;3587820;81;37749;-76
2020/12/10 14:38:58;;;;;;;49.67;25.40;;;;;;;0.34;78.57;97739.34;3603245;81;21001;-77
2020/12/10 14:44:07;;;;;;;42.00;20.90;;;;;;;0.32;78.63;97737.46;3584074;82;21061;-78
2020/12/10 14:49:05;;;;;;;50.93;25.90;;;;;;;0.27;78.63;97744.02;3586206;80;21482;-78
2020/12/10 14:54:07;;;;;;;60.23;26.73;;;;;;;0.25;78.65;97743.44;3547716;82;21071;-78
2020/12/10 14:59:10;;;;;;;58.93;26.97;;;;;;;0.23;78.75;97744.22;3600195;82;20975;-78
2020/12/10 15:04:13;;;;;;;54.97;25.77;;;;;;;0.24;78.69;97745.30;3513475;83;21071;-77
2020/12/10 15:09:15;;;;;;;63.60;28.73;;;;;;;0.21;78.65;97742.34;3606299;81;21079;-76
2020/12/10 15:14:19;;;;;;;44.13;21.03;;;;;;;0.20;78.84;97735.47;3499850;83;21107;-76
2020/12/10 15:19:23;;;;;;;66.47;29.70;;;;;;;0.24;78.75;97735.26;3525292;83;22156;-76
2020/12/10 15:24:26;;;;;;;53.77;26.30;;;;;;;0.16;78.65;97741.77;3591219;82;21078;-77
2020/12/10 15:29:27;;;;;;;57.57;27.83;;;;;;;0.13;78.88;97742.27;3606626;81;21123;-77
2020/12/10 15:34:30;;;;;;;57.27;28.23;;;;;;;0.14;79.03;97738.06;3509652;83;20985;-77
2020/12/10 15:39:33;;;;;;;56.47;26.00;;;;;;;0.19;79.16;97746.55;3582957;82;22092;-78
2020/12/10 15:44:36;;;;;;;59.03;29.80;;;;;;;0.16;79.04;97745.19;3509834;83;21067;-76
2020/12/10 15:49:38;;;;;;;65.90;30.80;;;;;;;0.19;79.12;97751.02;3527677;82;21035;-77
2020/12/10 15:54:40;;;;;;;69.80;29.83;;;;;;;0.21;79.29;97752.37;3593830;82;20996;-77
2020/12/10 15:59:42;;;;;;;57.10;27.20;;;;;;;0.24;79.15;97761.60;3593146;82;21475;-77
2020/12/10 16:04:44;;;;;;;58.13;28.83;;;;;;;0.24;79.12;97762.91;3582092;82;20961;-77
2020/12/10 16:09:48;;;;;;;62.20;26.57;;;;;;;0.20;79.13;97764.45;3543268;83;21028;-77
2020/12/10 16:14:50;;;;;;;61.23;31.43;;;;;;;0.13;79.02;97762.02;3563546;82;21052;-78
2020/12/10 16:19:53;;;;;;;62.73;30.77;;;;;;;0.12;79.28;97774.38;3543523;83;21013;-78
2020/12/10 16:24:55;;;;;;;59.27;26.97;;;;;;;0.14;79.47;97789.92;3563523;82;21072;-77
2020/12/10 16:29:57;;;;;;;62.13;28.20;;;;;;;0.18;79.53;97797.62;3492261;83;21031;-78
2020/12/10 16:34:59;;;;;;;76.17;34.90;;;;;;;0.22;79.37;97804.52;3487189;85;21023;-77
2020/12/10 16:40:01;;;;;;;65.10;30.80;;;;;;;0.18;79.35;97798.16;3487223;85;21102;-77
2020/12/10 16:45:04;;;;;;;57.57;26.93;;;;;;;0.19;79.60;97794.48;3487312;83;21105;-76
2020/12/10 16:50:06;;;;;;;66.80;31.00;;;;;;;0.21;79.51;97781.85;3506472;83;21095;-77
2020/12/10 16:55:09;;;;;;;74.10;31.63;;;;;;;0.24;79.74;97777.41;3546610;83;21011;-77
2020/12/10 17:00:11;;;;;;;64.53;28.87;;;;;;;0.26;79.82;97781.92;3546845;83;20995;-77
2020/12/10 17:05:15;;;;;;;58.07;27.03;;;;;;;0.26;79.77;97793.25;3520948;83;21570;-78
2020/12/10 17:10:18;;;;;;;50.47;24.77;;;;;;;0.27;79.91;97798.80;3520487;83;21011;-77
2020/12/10 17:15:19;;;;;;;45.03;21.87;;;;;;;0.26;79.81;97801.68;3546441;83;21011;-77
2020/12/10 17:20:23;;;;;;;48.27;22.20;;;;;;;0.28;79.75;97803.03;3546584;83;21059;-77
2020/12/10 17:25:25;;;;;;;50.03;22.87;;;;;;;0.28;79.69;97803.53;3546421;83;21452;-79
2020/12/10 17:30:27;;;;;;;50.73;23.53;;;;;;;0.21;79.65;97804.24;3478484;84;21043;-77
2020/12/10 17:35:29;;;;;;;48.10;23.23;;;;;;;0.22;79.75;97817.70;3599026;82;21083;-77
2020/12/10 17:40:33;;;;;;;52.03;24.77;;;;;;;0.22;79.84;97820.33;3598761;82;21022;-77
2020/12/10 17:45:36;;;;;;;46.83;21.83;;;;;;;0.21;79.87;97824.81;3598815;81;21007;-77
2020/12/10 17:50:38;;;;;;;43.37;21.97;;;;;;;0.20;79.81;97828.98;3622868;81;20980;-77
2020/12/10 17:55:40;;;;;;;54.33;24.30;;;;;;;0.19;79.86;97832.14;3657917;81;21488;-77
2020/12/10 18:00:42;;;;;;;43.03;22.53;;;;;;;0.13;79.90;97831.28;3608436;82;21049;-77
2020/12/10 18:05:44;;;;;;;50.03;25.07;;;;;;;0.15;79.97;97834.48;3543689;83;21051;-77
2020/12/10 18:10:46;;;;;;;51.17;25.07;;;;;;;0.14;79.94;97839.47;3541085;83;21501;-77
2020/12/10 18:15:48;;;;;;;49.07;24.93;;;;;;;0.14;79.97;97836.84;3543635;83;20983;-77
2020/12/10 18:20:52;;;;;;;46.93;23.60;;;;;;;0.13;79.89;97831.28;3543568;83;21042;-78
2020/12/10 18:25:54;;;;;;;50.97;25.83;;;;;;;0.13;79.96;97826.02;3642353;81;21051;-77
2020/12/10 18:30:56;;;;;;;48.27;25.50;;;;;;;0.10;80.00;97818.61;3531799;82;20991;-77
2020/12/10 18:36:00;;;;;;;54.67;25.07;;;;;;;0.09;80.04;97818.32;3506458;83;21020;-77
2020/12/10 18:41:03;;;;;;;53.03;24.93;;;;;;;0.09;80.05;97822.27;3531983;83;21050;-77
2020/12/10 18:46:04;;;;;;;52.13;25.53;;;;;;;0.05;80.04;97821.70;3506011;82;21466;-77
2020/12/10 18:51:12;;;;;;;52.27;24.07;;;;;;;0.06;80.40;97809.59;3596775;81;20960;-77
2020/12/10 18:56:14;;;;;;;56.30;24.43;;;;;;;0.11;80.54;97815.44;3656850;81;21008;-77
2020/12/10 19:01:19;;;;;;;45.57;21.50;;;;;;;0.12;80.38;97813.09;3656895;81;21023;-77
2020/12/10 19:06:21;;;;;;;49.47;22.97;;;;;;;0.08;80.05;97815.41;3608356;82;20998;-77
2020/12/10 19:11:25;;;;;;;54.37;24.50;;;;;;;0.02;80.10;97818.23;3543866;83;21459;-77
2020/12/10 19:16:27;;;;;;;47.63;23.97;;;;;;;-0.01;80.39;97810.30;3608423;82;21011;-77
2020/12/10 19:21:29;;;;;;;57.03;25.00;;;;;;;0.02;80.35;97822.19;3657319;81;20988;-78
2020/12/10 19:26:31;;;;;;;54.57;24.43;;;;;;;0.05;80.49;97831.70;3628186;81;21007;-77
2020/12/10 19:31:34;;;;;;;58.83;26.63;;;;;;;0.06;80.42;97840.41;3532468;84;21442;-77
2020/12/10 19:36:36;;;;;;;85.00;35.03;;;;;;;-0.01;80.02;97834.78;3532419;83;21047;-77
2020/12/10 19:41:38;;;;;;;94.93;39.10;;;;;;;-0.04;80.26;97835.27;3532695;83;21476;-77
2020/12/10 19:46:43;;;;;;;91.10;38.40;;;;;;;-0.01;80.50;97848.48;3532582;82;21574;-77
2020/12/10 19:51:45;;;;;;;100.77;44.63;;;;;;;-0.04;80.09;97848.97;3612725;81;21487;-77
2020/12/10 19:56:49;;;;;;;87.00;39.43;;;;;;;0.00;80.62;97850.08;3608643;82;20998;-77
2020/12/10 20:01:51;;;;;;;75.37;35.10;;;;;;;0.02;80.33;97854.57;3544137;83;21434;-77
2020/12/10 20:06:54;;;;;;;78.70;36.53;;;;;;;-0.11;79.98;97858.84;3544045;83;21037;-78
2020/12/10 20:11:56;;;;;;;84.43;39.07;;;;;;;-0.24;79.99;97861.30;3544068;83;21038;-78
2020/12/10 20:16:58;;;;;;;79.67;37.47;;;;;;;-0.31;80.29;97864.08;3657348;81;20992;-78
2020/12/10 20:22:00;;;;;;;65.43;30.43;;;;;;;-0.30;80.51;97877.53;3657486;81;20916;-78
2020/12/10 20:27:04;;;;;;;76.47;35.00;;;;;;;-0.28;80.70;97880.73;3613708;81;21534;-77
2020/12/10 20:32:06;;;;;;;78.23;34.40;;;;;;;-0.20;80.95;97880.34;3532360;84;21059;-77
2020/12/10 20:37:12;;;;;;;62.10;29.17;;;;;;;-0.14;80.76;97883.02;3532482;83;21003;-77
2020/12/10 20:42:16;;;;;;;82.07;37.07;;;;;;;-0.12;80.65;97877.02;3532382;83;20968;-79
2020/12/10 20:47:18;;;;;;;85.03;36.70;;;;;;;-0.20;80.52;97876.89;3532231;82;21071;-78
2020/12/10 20:52:21;;;;;;;96.07;39.37;;;;;;;-0.25;80.66;97880.75;3627326;81;21007;-77
2020/12/10 20:57:22;;;;;;;99.90;44.47;;;;;;;-0.22;80.80;97876.34;3657256;81;21031;-77
2020/12/10 21:02:25;;;;;;;104.90;44.23;;;;;;;-0.23;80.84;97890.53;3657141;81;21023;-77
2020/12/10 21:07:27;;;;;;;105.37;45.50;;;;;;;-0.25;80.96;97886.83;3608499;82;21026;-77
2020/12/10 21:12:30;;;;;;;87.07;40.70;;;;;;;-0.25;80.99;97887.33;3543781;83;21003;-77
2020/12/10 21:17:33;;;;;;;101.93;45.33;;;;;;;-0.22;81.04;97877.66;3608603;82;21070;-78
2020/12/10 21:22:37;;;;;;;121.57;49.70;;;;;;;-0.26;81.05;97881.81;3657194;81;20944;-78
2020/12/10 21:27:39;;;;;;;105.40;47.77;;;;;;;-0.27;81.17;97878.36;3588309;82;20963;-77
2020/12/10 21:32:41;;;;;;;108.60;50.27;;;;;;;-0.22;81.33;97878.45;3540973;83;21585;-78
2020/12/10 21:37:43;;;;;;;86.43;38.00;;;;;;;-0.18;81.35;97878.78;3540672;83;21083;-77
2020/12/10 21:42:45;;;;;;;85.87;38.00;;;;;;;-0.19;81.27;97883.23;3478355;85;21050;-77
2020/12/10 21:47:51;;;;;;;86.27;38.27;;;;;;;-0.22;81.10;97888.19;3540579;82;20999;-77
2020/12/10 21:52:53;;;;;;;69.43;34.10;;;;;;;-0.25;81.13;97882.87;3534316;83;21427;-77
2020/12/10 21:57:55;;;;;;;81.00;37.17;;;;;;;-0.26;81.26;97883.91;3657126;81;21371;-78
2020/12/10 22:02:57;;;;;;;85.53;36.73;;;;;;;-0.22;81.53;97879.77;3657376;81;21443;-78
2020/12/10 22:07:59;;;;;;;104.33;45.67;;;;;;;-0.18;81.21;97886.14;3608488;82;21030;-78
2020/12/10 22:13:03;;;;;;;103.23;41.73;;;;;;;-0.14;81.63;97904.09;3541198;83;21035;-78
2020/12/10 22:18:05;;;;;;;99.27;42.90;;;;;;;-0.02;81.93;97900.33;3543912;83;21010;-78
2020/12/10 22:23:07;;;;;;;119.73;53.40;;;;;;;0.09;81.83;97901.81;3543894;83;21396;-78
2020/12/10 22:28:09;;;;;;;146.07;58.23;;;;;;;0.14;81.37;97907.13;3507076;83;21008;-77
2020/12/10 22:33:11;;;;;;;138.97;59.40;;;;;;;0.14;81.49;97902.69;3540558;83;21062;-78
2020/12/10 22:38:13;;;;;;;134.80;57.00;;;;;;;0.18;81.43;97908.78;3478281;84;21027;-77
2020/12/10 22:43:15;;;;;;;136.10;55.57;;;;;;;0.21;81.30;97901.70;3574066;82;20999;-78
2020/12/10 22:48:17;;;;;;;122.80;52.17;;;;;;;0.15;81.14;97904.28;3598845;81;21070;-77
2020/12/10 22:53:19;;;;;;;139.50;57.07;;;;;;;0.13;81.15;97905.56;3654678;81;21353;-77
2020/12/10 22:58:21;;;;;;;129.97;51.13;;;;;;;0.09;81.01;97899.18;3658297;81;21031;-77
2020/12/10 23:03:24;;;;;;;126.17;52.17;;;;;;;-0.05;80.71;97903.98;3658255;81;22095;-77
2020/12/10 23:08:28;;;;;;;134.47;56.27;;;;;;;-0.11;81.11;97891.75;3658093;81;21059;-77
2020/12/10 23:13:30;;;;;;;128.10;52.13;;;;;;;-0.06;81.41;97905.00;3658101;81;21003;-77
2020/12/10 23:18:32;;;;;;;139.10;56.37;;;;;;;-0.07;81.27;97896.82;3658215;81;21039;-77
2020/12/10 23:23:35;;;;;;;126.47;51.73;;;;;;;0.03;81.56;97900.94;3658135;81;20980;-77